Terminal Aerodrome Forecast
Issued by NWS

Home | Current Version | Previous Version | Text Only | Print | Product List | Glossary On
Versions: 1 2 3 4 5 6 7 8 9 10 11 12 13 14 15 16 17 18
945
FTUS43 KEAX 261259 AAA
TAFSTJ
TAF AMD
KSTJ 261259Z 2613/2712 16006KT P6SM BKN150
     FM261400 20006KT P6SM -SHRA VCTS SCT080CB BKN120
      TEMPO 2614/2618 4SM TSRA OVC040CB
     FM262000 29006KT P6SM BKN080
     FM270100 01004KT P6SM BKN150=

USA.gov is the U.S. government's official web portal to all federal, state and local government web resources and services.